createdAt,value
2022-12-19T00:01:09.162Z,173.27
2022-12-19T00:06:05.680Z,135.27
2022-12-19T00:11:00.354Z,136.50
2022-12-19T00:15:53.206Z,228.32
2022-12-19T00:20:46.662Z,127.77
2022-12-19T00:25:40.784Z,185.10
2022-12-19T00:30:35.365Z,93.50
2022-12-19T00:35:28.838Z,99.97
2022-12-19T00:40:21.049Z,109.33
2022-12-19T00:45:17.062Z,113.53
2022-12-19T00:50:12.040Z,173.80
2022-12-19T00:55:05.257Z,106.85
2022-12-19T01:00:11.719Z,83.45
2022-12-19T01:05:05.391Z,77.82
2022-12-19T01:10:03.506Z,89.25
2022-12-19T01:15:04.640Z,78.40
2022-12-19T01:20:04.246Z,91.70
2022-12-19T01:24:57.029Z,63.80
2022-12-19T01:29:53.164Z,61.83
2022-12-19T01:34:45.520Z,69.43
2022-12-19T01:39:39.362Z,64.40
2022-12-19T01:44:35.182Z,67.55
2022-12-19T01:49:36.502Z,69.97
2022-12-19T01:54:36.074Z,69.03
2022-12-19T01:59:56.667Z,63.20
2022-12-19T02:04:48.978Z,60.30
2022-12-19T02:09:42.360Z,72.65
2022-12-19T02:14:36.344Z,76.15
2022-12-19T02:19:50.564Z,69.75
2022-12-19T02:25:19.648Z,71.90
2022-12-19T02:30:18.746Z,73.20
2022-12-19T02:35:20.378Z,77.65
2022-12-19T02:40:40.489Z,59.58
2022-12-19T02:45:38.917Z,61.42
2022-12-19T02:50:58.365Z,61.88
2022-12-19T02:56:30.158Z,57.20
2022-12-19T03:01:37.305Z,59.85
2022-12-19T03:06:37.258Z,53.63
2022-12-19T03:11:34.652Z,55.22
2022-12-19T03:16:36.615Z,58.20
2022-12-19T03:22:00.094Z,51.63
2022-12-19T03:27:17.534Z,55.10
2022-12-19T03:32:15.754Z,55.53
2022-12-19T03:37:13.626Z,53.00
2022-12-19T03:42:26.867Z,58.28
2022-12-19T03:47:34.609Z,54.25
2022-12-19T03:52:33.870Z,65.65
2022-12-19T03:57:34.314Z,66.03
2022-12-19T04:02:29.190Z,70.30
2022-12-19T04:07:22.979Z,56.17
2022-12-19T04:12:27.299Z,56.33
2022-12-19T04:17:23.144Z,49.63
2022-12-19T04:22:26.692Z,47.45
2022-12-19T04:27:21.320Z,47.63
2022-12-19T04:32:15.788Z,50.47
2022-12-19T04:37:09.824Z,57.53
2022-12-19T04:46:56.215Z,63.00
2022-12-19T04:51:49.320Z,58.17
2022-12-19T04:56:42.540Z,61.10
2022-12-19T05:01:35.855Z,63.05
2022-12-19T05:06:28.164Z,57.65
2022-12-19T05:11:21.264Z,59.85
2022-12-19T05:16:16.168Z,55.45
2022-12-19T05:21:08.435Z,58.40
2022-12-19T05:26:02.794Z,58.60
2022-12-19T05:31:09.231Z,58.63
2022-12-19T05:36:02.496Z,67.68
2022-12-19T05:40:56.221Z,61.50
2022-12-19T05:45:48.464Z,61.08
2022-12-19T05:50:41.479Z,61.83
2022-12-19T05:55:34.425Z,67.55
2022-12-19T06:00:27.967Z,73.40
2022-12-19T06:05:22.064Z,67.60
2022-12-19T06:10:15.505Z,84.68
2022-12-19T06:15:11.898Z,74.47
2022-12-19T06:20:06.703Z,67.10
2022-12-19T06:25:00.755Z,61.78
2022-12-19T06:29:55.067Z,62.08
2022-12-19T06:35:03.675Z,72.78
2022-12-19T06:39:58.842Z,66.28
2022-12-19T06:44:53.004Z,71.05
2022-12-19T06:49:48.970Z,76.20
2022-12-19T06:54:41.709Z,68.78
2022-12-19T06:59:34.531Z,72.47
2022-12-19T07:04:36.384Z,79.97
2022-12-19T07:09:31.520Z,67.22
2022-12-19T07:14:24.678Z,70.85
2022-12-19T07:19:18.068Z,105.90
2022-12-19T07:24:13.233Z,71.80
2022-12-19T07:29:08.350Z,72.60
2022-12-19T07:34:01.270Z,77.78
2022-12-19T07:38:54.476Z,73.43
2022-12-19T07:43:48.522Z,68.07
2022-12-19T07:48:42.467Z,79.47
2022-12-19T07:53:36.711Z,66.68
2022-12-19T07:58:31.896Z,72.30
2022-12-19T08:03:25.635Z,79.28
2022-12-19T08:08:18.532Z,77.82
2022-12-19T08:13:11.618Z,77.75
2022-12-19T08:18:05.062Z,77.88
2022-12-19T08:22:58.928Z,79.60
2022-12-19T08:27:51.622Z,72.90
2022-12-19T08:32:45.698Z,77.07
2022-12-19T08:37:38.735Z,78.40
2022-12-19T08:47:27.552Z,84.25
2022-12-19T08:52:21.020Z,89.13
2022-12-19T08:57:14.511Z,80.45
2022-12-19T09:07:00.922Z,79.47
2022-12-19T09:11:54.520Z,79.80
2022-12-19T09:16:48.973Z,67.43
2022-12-19T09:21:42.615Z,63.50
2022-12-19T09:26:37.577Z,69.07
2022-12-19T09:31:31.086Z,63.78
2022-12-19T09:36:25.104Z,71.55
2022-12-19T09:46:45.062Z,67.32
2022-12-19T09:51:47.500Z,62.95
2022-12-19T09:56:46.265Z,73.88
2022-12-19T10:01:59.207Z,67.40
2022-12-19T10:07:22.189Z,68.97
2022-12-19T10:12:45.620Z,65.82
2022-12-19T10:18:07.778Z,67.70
2022-12-19T10:23:32.414Z,74.75
2022-12-19T10:28:29.603Z,73.13
2022-12-19T10:33:41.141Z,64.78
2022-12-19T10:39:03.303Z,69.40
2022-12-19T10:44:10.232Z,73.45
2022-12-19T10:49:11.899Z,67.32
2022-12-19T10:54:05.766Z,65.65
2022-12-19T10:59:00.574Z,65.45
2022-12-19T11:04:25.099Z,69.60
2022-12-19T11:09:19.266Z,68.20
2022-12-19T11:29:25.025Z,56.90
2022-12-19T11:30:09.924Z,55.60
2022-12-19T11:35:51.910Z,57.83
2022-12-19T11:40:49.420Z,58.80
2022-12-19T11:45:50.861Z,61.30
2022-12-19T11:51:02.440Z,56.78
2022-12-19T11:56:16.127Z,57.13
2022-12-19T12:01:24.809Z,58.22
2022-12-19T12:06:18.683Z,62.58
2022-12-19T12:18:11.894Z,59.97
2022-12-19T12:31:17.510Z,58.70
2022-12-19T12:31:28.730Z,57.55
2022-12-19T12:32:03.188Z,59.38
2022-12-19T12:35:52.126Z,57.60
2022-12-19T12:40:08.039Z,56.70
2022-12-19T12:45:04.062Z,56.53
2022-12-19T12:50:09.121Z,56.47
2022-12-19T12:55:05.664Z,60.17
2022-12-19T13:00:21.245Z,67.95
2022-12-19T13:05:30.182Z,58.83
2022-12-19T13:10:31.405Z,58.70
2022-12-19T13:15:36.947Z,60.40
2022-12-19T13:20:30.331Z,62.30
2022-12-19T13:25:35.473Z,71.35
2022-12-19T13:30:54.253Z,61.80
2022-12-19T13:38:05.436Z,58.72
2022-12-19T13:46:05.928Z,57.22
2022-12-19T13:51:01.099Z,57.25
2022-12-19T13:56:08.998Z,61.13
2022-12-19T14:01:07.182Z,55.70
2022-12-19T14:06:29.476Z,59.93
2022-12-19T14:11:44.046Z,52.75
2022-12-19T14:16:44.079Z,54.70
2022-12-19T14:22:06.143Z,57.17
2022-12-19T14:28:24.404Z,54.50
2022-12-19T14:33:44.637Z,52.22
2022-12-19T14:39:27.870Z,62.67
2022-12-19T14:44:00.006Z,62.35
2022-12-19T14:54:17.515Z,66.95
2022-12-19T14:56:16.019Z,69.53
2022-12-19T15:01:10.640Z,64.90
2022-12-19T15:07:05.526Z,74.80
2022-12-19T15:13:14.099Z,67.07
2022-12-19T15:17:22.978Z,68.10
2022-12-19T15:22:16.259Z,70.97
2022-12-19T15:27:15.744Z,71.53
2022-12-19T15:32:16.166Z,66.88
2022-12-19T15:37:11.022Z,65.25
2022-12-19T15:42:05.442Z,71.95
2022-12-19T15:46:58.322Z,72.18
2022-12-19T15:51:51.155Z,68.38
2022-12-19T15:56:50.288Z,78.20
2022-12-19T16:01:44.766Z,68.05
2022-12-19T16:06:38.309Z,72.97
2022-12-19T16:11:31.620Z,70.80
2022-12-19T16:21:34.086Z,67.90
2022-12-19T16:26:40.435Z,64.00
2022-12-19T16:31:33.774Z,66.57
2022-12-19T16:36:27.461Z,73.53
2022-12-19T16:41:23.349Z,73.15
2022-12-19T16:46:21.514Z,64.50
2022-12-19T16:51:40.846Z,70.50
2022-12-19T16:56:35.864Z,71.13
2022-12-19T17:01:29.899Z,72.65
2022-12-19T17:11:26.265Z,75.63
2022-12-19T17:21:21.392Z,80.57
2022-12-19T17:26:18.201Z,83.80
2022-12-19T17:31:21.591Z,92.03
2022-12-19T17:36:18.427Z,92.07
2022-12-19T17:41:17.642Z,88.65
2022-12-19T17:46:29.595Z,96.00
2022-12-19T17:51:23.036Z,93.13
2022-12-19T17:56:19.052Z,99.47
2022-12-19T18:01:35.399Z,98.15
2022-12-19T18:06:28.056Z,101.88
2022-12-19T18:11:26.022Z,100.82
2022-12-19T18:16:21.351Z,92.13
2022-12-19T18:21:25.000Z,93.20
2022-12-19T18:26:18.652Z,87.50
2022-12-19T18:31:30.773Z,90.65
2022-12-19T18:36:29.976Z,89.30
2022-12-19T18:41:24.681Z,89.43
2022-12-19T18:46:28.610Z,85.82
2022-12-19T18:51:23.115Z,84.65
2022-12-19T18:56:16.992Z,81.25
2022-12-19T19:01:23.554Z,81.65
2022-12-19T19:06:22.830Z,81.95
2022-12-19T19:11:15.571Z,81.00
2022-12-19T19:16:27.885Z,93.63
2022-12-19T19:21:23.479Z,93.13
2022-12-19T19:26:16.776Z,97.55
2022-12-19T19:31:11.859Z,91.75
2022-12-19T19:36:19.771Z,94.70
2022-12-19T19:41:13.568Z,88.53
2022-12-19T19:46:06.823Z,92.95
2022-12-19T19:51:00.636Z,91.07
2022-12-19T19:56:05.238Z,95.78
2022-12-19T20:00:58.779Z,94.25
2022-12-19T20:06:01.692Z,98.82
2022-12-19T20:10:56.217Z,97.00
2022-12-19T20:15:50.095Z,96.90
2022-12-19T20:20:43.433Z,103.13
2022-12-19T20:25:40.276Z,97.35
2022-12-19T20:30:32.852Z,91.53
2022-12-19T20:35:29.054Z,94.47
2022-12-19T20:40:23.992Z,95.32
2022-12-19T20:45:18.505Z,81.00
2022-12-19T20:50:13.256Z,87.93
2022-12-19T20:55:10.210Z,91.43
2022-12-19T21:00:06.068Z,96.00
2022-12-19T21:05:00.293Z,87.93
2022-12-19T21:09:54.693Z,91.03
2022-12-19T21:19:40.253Z,85.50
2022-12-19T21:24:34.060Z,92.07
2022-12-19T21:29:26.701Z,86.70
2022-12-19T21:34:20.751Z,89.38
2022-12-19T21:39:13.158Z,89.25
2022-12-19T21:44:07.214Z,97.03
2022-12-19T21:49:00.721Z,87.60
2022-12-19T21:53:55.588Z,91.30
2022-12-19T21:58:49.322Z,91.03
2022-12-19T22:03:42.666Z,92.22
2022-12-19T22:08:36.492Z,87.63
2022-12-19T22:13:30.296Z,88.03
2022-12-19T22:18:24.057Z,92.15
2022-12-19T22:23:16.764Z,97.32
2022-12-19T22:28:10.929Z,91.40
2022-12-19T22:33:05.352Z,90.20
2022-12-19T22:37:59.731Z,96.22
2022-12-19T22:42:52.209Z,91.13
2022-12-19T22:47:46.286Z,84.50
2022-12-19T22:52:39.818Z,87.15
2022-12-19T22:57:33.585Z,95.63
2022-12-19T23:07:20.751Z,86.55
2022-12-19T23:12:13.998Z,87.68
2022-12-19T23:17:08.005Z,92.68
2022-12-19T23:22:01.560Z,91.47
2022-12-19T23:26:55.698Z,103.15
2022-12-19T23:31:48.764Z,90.50
2022-12-19T23:41:55.179Z,87.73
2022-12-19T23:51:41.947Z,93.32
